sensor_id;sensor_type;location;lat;lon;timestamp;P1;durP1;ratioP1;P2;durP2;ratioP2
68614;SDS011;55593;51.994;5.882;2023-10-31T00:00:09;5.88;;;1.50;;
68614;SDS011;55593;51.994;5.882;2023-10-31T00:02:39;4.18;;;1.83;;
68614;SDS011;55593;51.994;5.882;2023-10-31T00:05:08;3.72;;;2.20;;
68614;SDS011;55593;51.994;5.882;2023-10-31T00:07:37;4.20;;;1.25;;
68614;SDS011;55593;51.994;5.882;2023-10-31T00:10:06;6.10;;;1.20;;
68614;SDS011;55593;51.994;5.882;2023-10-31T00:12:39;5.22;;;1.50;;
68614;SDS011;55593;51.994;5.882;2023-10-31T00:15:08;4.93;;;2.28;;
68614;SDS011;55593;51.994;5.882;2023-10-31T00:17:37;4.65;;;2.08;;
68614;SDS011;55593;51.994;5.882;2023-10-31T00:20:07;4.55;;;2.10;;
68614;SDS011;55593;51.994;5.882;2023-10-31T00:22:36;5.45;;;2.13;;
68614;SDS011;55593;51.994;5.882;2023-10-31T00:25:05;4.53;;;2.33;;
68614;SDS011;55593;51.994;5.882;2023-10-31T00:27:38;7.68;;;2.47;;
68614;SDS011;55593;51.994;5.882;2023-10-31T00:30:07;6.40;;;2.05;;
68614;SDS011;55593;51.994;5.882;2023-10-31T00:32:37;4.95;;;2.40;;
68614;SDS011;55593;51.994;5.882;2023-10-31T00:35:06;7.50;;;2.45;;
68614;SDS011;55593;51.994;5.882;2023-10-31T00:37:38;5.30;;;2.00;;
68614;SDS011;55593;51.994;5.882;2023-10-31T00:40:08;6.85;;;2.03;;
68614;SDS011;55593;51.994;5.882;2023-10-31T00:42:42;5.90;;;2.28;;
68614;SDS011;55593;51.994;5.882;2023-10-31T00:45:14;8.13;;;2.00;;
68614;SDS011;55593;51.994;5.882;2023-10-31T00:47:43;5.45;;;2.10;;
68614;SDS011;55593;51.994;5.882;2023-10-31T00:50:12;3.50;;;1.70;;
68614;SDS011;55593;51.994;5.882;2023-10-31T00:52:41;6.80;;;2.17;;
68614;SDS011;55593;51.994;5.882;2023-10-31T00:55:10;7.03;;;2.35;;
68614;SDS011;55593;51.994;5.882;2023-10-31T00:57:42;10.95;;;2.20;;
68614;SDS011;55593;51.994;5.882;2023-10-31T01:00:12;3.95;;;1.90;;
68614;SDS011;55593;51.994;5.882;2023-10-31T01:02:41;9.38;;;3.10;;
68614;SDS011;55593;51.994;5.882;2023-10-31T01:05:11;7.90;;;2.85;;
68614;SDS011;55593;51.994;5.882;2023-10-31T01:07:40;5.88;;;3.10;;
68614;SDS011;55593;51.994;5.882;2023-10-31T01:10:09;7.45;;;3.60;;
68614;SDS011;55593;51.994;5.882;2023-10-31T01:12:38;9.35;;;3.92;;
68614;SDS011;55593;51.994;5.882;2023-10-31T01:15:10;8.18;;;4.40;;
68614;SDS011;55593;51.994;5.882;2023-10-31T01:17:39;10.25;;;5.13;;
68614;SDS011;55593;51.994;5.882;2023-10-31T01:20:08;7.85;;;4.82;;
68614;SDS011;55593;51.994;5.882;2023-10-31T01:22:38;11.25;;;6.03;;
68614;SDS011;55593;51.994;5.882;2023-10-31T01:25:07;11.35;;;6.35;;
68614;SDS011;55593;51.994;5.882;2023-10-31T01:27:36;13.23;;;7.97;;
68614;SDS011;55593;51.994;5.882;2023-10-31T01:30:11;11.07;;;7.07;;
68614;SDS011;55593;51.994;5.882;2023-10-31T01:32:41;15.85;;;7.80;;
68614;SDS011;55593;51.994;5.882;2023-10-31T01:35:10;20.77;;;10.88;;
68614;SDS011;55593;51.994;5.882;2023-10-31T01:37:39;14.75;;;10.20;;
68614;SDS011;55593;51.994;5.882;2023-10-31T01:40:11;15.70;;;10.77;;
68614;SDS011;55593;51.994;5.882;2023-10-31T01:42:41;18.55;;;10.65;;
68614;SDS011;55593;51.994;5.882;2023-10-31T01:45:12;15.60;;;11.18;;
68614;SDS011;55593;51.994;5.882;2023-10-31T01:47:42;18.58;;;11.57;;
68614;SDS011;55593;51.994;5.882;2023-10-31T01:50:11;16.60;;;11.43;;
68614;SDS011;55593;51.994;5.882;2023-10-31T01:52:41;18.88;;;11.95;;
68614;SDS011;55593;51.994;5.882;2023-10-31T01:55:10;23.20;;;12.15;;
68614;SDS011;55593;51.994;5.882;2023-10-31T01:57:39;18.23;;;11.48;;
68614;SDS011;55593;51.994;5.882;2023-10-31T02:00:09;23.10;;;12.25;;
68614;SDS011;55593;51.994;5.882;2023-10-31T02:02:43;22.35;;;12.13;;
68614;SDS011;55593;51.994;5.882;2023-10-31T02:05:12;21.98;;;11.77;;
68614;SDS011;55593;51.994;5.882;2023-10-31T02:07:42;20.70;;;11.57;;
68614;SDS011;55593;51.994;5.882;2023-10-31T02:10:13;18.35;;;12.63;;
68614;SDS011;55593;51.994;5.882;2023-10-31T02:12:42;23.52;;;13.13;;
68614;SDS011;55593;51.994;5.882;2023-10-31T02:15:11;25.27;;;15.68;;
68614;SDS011;55593;51.994;5.882;2023-10-31T02:17:43;25.60;;;14.32;;
68614;SDS011;55593;51.994;5.882;2023-10-31T02:20:12;33.80;;;15.68;;
68614;SDS011;55593;51.994;5.882;2023-10-31T02:22:44;30.02;;;15.75;;
68614;SDS011;55593;51.994;5.882;2023-10-31T02:25:17;23.83;;;14.95;;
68614;SDS011;55593;51.994;5.882;2023-10-31T02:27:46;25.10;;;14.98;;
68614;SDS011;55593;51.994;5.882;2023-10-31T02:30:15;27.65;;;16.08;;
68614;SDS011;55593;51.994;5.882;2023-10-31T02:32:45;26.02;;;15.25;;
68614;SDS011;55593;51.994;5.882;2023-10-31T02:35:15;23.85;;;15.68;;
68614;SDS011;55593;51.994;5.882;2023-10-31T02:37:47;34.33;;;18.27;;
68614;SDS011;55593;51.994;5.882;2023-10-31T02:40:16;20.52;;;14.90;;
68614;SDS011;55593;51.994;5.882;2023-10-31T02:42:46;29.85;;;15.65;;
68614;SDS011;55593;51.994;5.882;2023-10-31T02:45:15;22.40;;;14.20;;
68614;SDS011;55593;51.994;5.882;2023-10-31T02:47:45;21.13;;;14.10;;
68614;SDS011;55593;51.994;5.882;2023-10-31T02:50:14;22.33;;;13.73;;
68614;SDS011;55593;51.994;5.882;2023-10-31T02:52:43;21.70;;;14.00;;
68614;SDS011;55593;51.994;5.882;2023-10-31T02:55:15;19.13;;;14.07;;
68614;SDS011;55593;51.994;5.882;2023-10-31T02:57:44;23.33;;;15.73;;
68614;SDS011;55593;51.994;5.882;2023-10-31T03:00:14;21.92;;;15.18;;
68614;SDS011;55593;51.994;5.882;2023-10-31T03:02:43;24.85;;;15.70;;
68614;SDS011;55593;51.994;5.882;2023-10-31T03:05:13;26.65;;;15.73;;
68614;SDS011;55593;51.994;5.882;2023-10-31T03:07:42;23.33;;;14.80;;
68614;SDS011;55593;51.994;5.882;2023-10-31T03:10:11;30.25;;;16.63;;
68614;SDS011;55593;51.994;5.882;2023-10-31T03:12:43;30.35;;;16.80;;
68614;SDS011;55593;51.994;5.882;2023-10-31T03:15:12;22.45;;;14.88;;
68614;SDS011;55593;51.994;5.882;2023-10-31T03:17:42;26.70;;;16.35;;
68614;SDS011;55593;51.994;5.882;2023-10-31T03:20:11;23.80;;;15.35;;
68614;SDS011;55593;51.994;5.882;2023-10-31T03:22:41;23.95;;;15.75;;
68614;SDS011;55593;51.994;5.882;2023-10-31T03:25:10;24.02;;;17.40;;
68614;SDS011;55593;51.994;5.882;2023-10-31T03:27:39;36.85;;;17.55;;
68614;SDS011;55593;51.994;5.882;2023-10-31T03:30:11;29.42;;;17.80;;
68614;SDS011;55593;51.994;5.882;2023-10-31T03:32:40;21.42;;;15.82;;
68614;SDS011;55593;51.994;5.882;2023-10-31T03:35:09;26.50;;;16.23;;
68614;SDS011;55593;51.994;5.882;2023-10-31T03:37:38;23.30;;;16.00;;
68614;SDS011;55593;51.994;5.882;2023-10-31T03:40:08;24.27;;;16.85;;
68614;SDS011;55593;51.994;5.882;2023-10-31T03:42:39;24.52;;;15.60;;
68614;SDS011;55593;51.994;5.882;2023-10-31T03:45:11;23.55;;;16.52;;
68614;SDS011;55593;51.994;5.882;2023-10-31T03:47:40;21.60;;;14.50;;
68614;SDS011;55593;51.994;5.882;2023-10-31T03:50:09;23.20;;;15.27;;
68614;SDS011;55593;51.994;5.882;2023-10-31T03:52:39;21.98;;;13.68;;
68614;SDS011;55593;51.994;5.882;2023-10-31T03:55:08;21.38;;;14.38;;
68614;SDS011;55593;51.994;5.882;2023-10-31T03:57:37;18.27;;;12.38;;
68614;SDS011;55593;51.994;5.882;2023-10-31T04:00:06;22.85;;;13.15;;
68614;SDS011;55593;51.994;5.882;2023-10-31T04:02:42;15.27;;;10.20;;
68614;SDS011;55593;51.994;5.882;2023-10-31T04:05:11;15.73;;;10.23;;
68614;SDS011;55593;51.994;5.882;2023-10-31T04:07:41;19.38;;;10.82;;
68614;SDS011;55593;51.994;5.882;2023-10-31T04:10:10;15.27;;;9.77;;
68614;SDS011;55593;51.994;5.882;2023-10-31T04:12:39;19.08;;;10.80;;
68614;SDS011;55593;51.994;5.882;2023-10-31T04:15:08;15.23;;;10.63;;
68614;SDS011;55593;51.994;5.882;2023-10-31T04:17:38;20.10;;;10.13;;
68614;SDS011;55593;51.994;5.882;2023-10-31T04:20:10;19.65;;;10.57;;
68614;SDS011;55593;51.994;5.882;2023-10-31T04:22:39;16.20;;;10.07;;
68614;SDS011;55593;51.994;5.882;2023-10-31T04:25:08;16.05;;;11.10;;
68614;SDS011;55593;51.994;5.882;2023-10-31T04:27:37;18.90;;;11.18;;
68614;SDS011;55593;51.994;5.882;2023-10-31T04:30:07;13.55;;;9.43;;
68614;SDS011;55593;51.994;5.882;2023-10-31T04:32:36;16.67;;;9.68;;
68614;SDS011;55593;51.994;5.882;2023-10-31T04:35:06;14.85;;;9.80;;
68614;SDS011;55593;51.994;5.882;2023-10-31T04:37:38;14.45;;;9.23;;
68614;SDS011;55593;51.994;5.882;2023-10-31T04:40:08;11.80;;;8.50;;
68614;SDS011;55593;51.994;5.882;2023-10-31T04:42:38;13.13;;;7.40;;
68614;SDS011;55593;51.994;5.882;2023-10-31T04:45:08;12.70;;;7.03;;
68614;SDS011;55593;51.994;5.882;2023-10-31T04:47:38;13.18;;;7.03;;
68614;SDS011;55593;51.994;5.882;2023-10-31T04:50:08;10.07;;;6.88;;
68614;SDS011;55593;51.994;5.882;2023-10-31T04:52:40;13.02;;;7.18;;
68614;SDS011;55593;51.994;5.882;2023-10-31T04:55:09;15.80;;;7.90;;
68614;SDS011;55593;51.994;5.882;2023-10-31T04:57:38;14.07;;;7.53;;
68614;SDS011;55593;51.994;5.882;2023-10-31T05:00:08;14.10;;;7.32;;
68614;SDS011;55593;51.994;5.882;2023-10-31T05:02:38;14.32;;;7.60;;
68614;SDS011;55593;51.994;5.882;2023-10-31T05:05:07;13.13;;;7.35;;
68614;SDS011;55593;51.994;5.882;2023-10-31T05:07:36;11.63;;;7.03;;
68614;SDS011;55593;51.994;5.882;2023-10-31T05:10:08;11.45;;;7.85;;
68614;SDS011;55593;51.994;5.882;2023-10-31T05:12:38;11.02;;;7.20;;
68614;SDS011;55593;51.994;5.882;2023-10-31T05:15:07;11.35;;;7.68;;
68614;SDS011;55593;51.994;5.882;2023-10-31T05:17:37;12.10;;;7.68;;
68614;SDS011;55593;51.994;5.882;2023-10-31T05:20:06;12.05;;;8.40;;
68614;SDS011;55593;51.994;5.882;2023-10-31T05:22:36;13.02;;;7.47;;
68614;SDS011;55593;51.994;5.882;2023-10-31T05:25:08;16.17;;;7.88;;
68614;SDS011;55593;51.994;5.882;2023-10-31T05:27:38;11.98;;;7.85;;
68614;SDS011;55593;51.994;5.882;2023-10-31T05:30:08;17.60;;;8.10;;
68614;SDS011;55593;51.994;5.882;2023-10-31T05:32:38;12.48;;;7.80;;
68614;SDS011;55593;51.994;5.882;2023-10-31T05:35:07;12.18;;;8.00;;
68614;SDS011;55593;51.994;5.882;2023-10-31T05:37:37;15.48;;;8.52;;
68614;SDS011;55593;51.994;5.882;2023-10-31T05:40:09;13.88;;;7.68;;
68614;SDS011;55593;51.994;5.882;2023-10-31T05:42:39;14.98;;;8.75;;
68614;SDS011;55593;51.994;5.882;2023-10-31T05:45:09;11.60;;;8.65;;
68614;SDS011;55593;51.994;5.882;2023-10-31T05:47:38;12.55;;;8.65;;
68614;SDS011;55593;51.994;5.882;2023-10-31T05:50:08;19.60;;;8.95;;
68614;SDS011;55593;51.994;5.882;2023-10-31T05:52:37;10.82;;;7.60;;
68614;SDS011;55593;51.994;5.882;2023-10-31T05:55:09;16.00;;;8.82;;
68614;SDS011;55593;51.994;5.882;2023-10-31T05:57:38;12.80;;;8.18;;
68614;SDS011;55593;51.994;5.882;2023-10-31T06:00:08;20.23;;;10.35;;
68614;SDS011;55593;51.994;5.882;2023-10-31T06:02:40;13.75;;;8.80;;
68614;SDS011;55593;51.994;5.882;2023-10-31T06:05:10;18.58;;;9.18;;
68614;SDS011;55593;51.994;5.882;2023-10-31T06:07:39;13.63;;;7.82;;
68614;SDS011;55593;51.994;5.882;2023-10-31T06:10:11;14.23;;;8.05;;
68614;SDS011;55593;51.994;5.882;2023-10-31T06:12:41;11.38;;;7.40;;
68614;SDS011;55593;51.994;5.882;2023-10-31T06:15:10;13.70;;;7.60;;
68614;SDS011;55593;51.994;5.882;2023-10-31T06:17:39;14.35;;;8.00;;
68614;SDS011;55593;51.994;5.882;2023-10-31T06:20:08;8.43;;;6.05;;
68614;SDS011;55593;51.994;5.882;2023-10-31T06:22:38;9.80;;;6.13;;
68614;SDS011;55593;51.994;5.882;2023-10-31T06:25:07;14.68;;;7.63;;
68614;SDS011;55593;51.994;5.882;2023-10-31T06:27:39;11.65;;;6.25;;
68614;SDS011;55593;51.994;5.882;2023-10-31T06:30:09;8.73;;;6.20;;
68614;SDS011;55593;51.994;5.882;2023-10-31T06:32:39;10.38;;;5.28;;
68614;SDS011;55593;51.994;5.882;2023-10-31T06:35:08;8.65;;;4.97;;
68614;SDS011;55593;51.994;5.882;2023-10-31T06:37:37;9.23;;;4.95;;
68614;SDS011;55593;51.994;5.882;2023-10-31T06:40:04;8.00;;;4.57;;
68614;SDS011;55593;51.994;5.882;2023-10-31T06:42:35;6.97;;;4.38;;
68614;SDS011;55593;51.994;5.882;2023-10-31T06:45:07;6.70;;;3.75;;
68614;SDS011;55593;51.994;5.882;2023-10-31T06:47:36;7.05;;;4.00;;
68614;SDS011;55593;51.994;5.882;2023-10-31T06:50:07;6.85;;;3.65;;
68614;SDS011;55593;51.994;5.882;2023-10-31T06:52:37;8.65;;;3.90;;
68614;SDS011;55593;51.994;5.882;2023-10-31T06:55:06;7.25;;;3.42;;
68614;SDS011;55593;51.994;5.882;2023-10-31T06:57:36;5.70;;;3.28;;
68614;SDS011;55593;51.994;5.882;2023-10-31T07:00:08;9.63;;;4.20;;
68614;SDS011;55593;51.994;5.882;2023-10-31T07:02:37;7.43;;;3.80;;
68614;SDS011;55593;51.994;5.882;2023-10-31T07:05:06;7.65;;;4.25;;
68614;SDS011;55593;51.994;5.882;2023-10-31T07:07:36;8.45;;;5.15;;
68614;SDS011;55593;51.994;5.882;2023-10-31T07:10:05;11.05;;;6.05;;
68614;SDS011;55593;51.994;5.882;2023-10-31T07:12:35;12.82;;;6.50;;
68614;SDS011;55593;51.994;5.882;2023-10-31T07:15:05;13.90;;;8.00;;
68614;SDS011;55593;51.994;5.882;2023-10-31T07:17:37;17.75;;;8.95;;
68614;SDS011;55593;51.994;5.882;2023-10-31T07:20:07;14.85;;;9.07;;
68614;SDS011;55593;51.994;5.882;2023-10-31T07:22:36;15.65;;;9.00;;
68614;SDS011;55593;51.994;5.882;2023-10-31T07:25:06;16.55;;;11.07;;
68614;SDS011;55593;51.994;5.882;2023-10-31T07:27:35;14.88;;;9.55;;
68614;SDS011;55593;51.994;5.882;2023-10-31T07:30:05;16.48;;;10.32;;
68614;SDS011;55593;51.994;5.882;2023-10-31T07:32:38;16.45;;;10.93;;
68614;SDS011;55593;51.994;5.882;2023-10-31T07:35:07;17.63;;;11.20;;
68614;SDS011;55593;51.994;5.882;2023-10-31T07:37:36;19.95;;;11.57;;
68614;SDS011;55593;51.994;5.882;2023-10-31T07:40:06;20.45;;;12.10;;
68614;SDS011;55593;51.994;5.882;2023-10-31T07:42:35;21.73;;;12.50;;
68614;SDS011;55593;51.994;5.882;2023-10-31T07:45:05;19.17;;;12.77;;
68614;SDS011;55593;51.994;5.882;2023-10-31T07:47:38;20.23;;;13.00;;
68614;SDS011;55593;51.994;5.882;2023-10-31T07:50:08;22.73;;;13.93;;
68614;SDS011;55593;51.994;5.882;2023-10-31T07:52:39;21.27;;;13.95;;
68614;SDS011;55593;51.994;5.882;2023-10-31T07:55:09;25.77;;;16.00;;
68614;SDS011;55593;51.994;5.882;2023-10-31T07:57:39;23.70;;;15.80;;
68614;SDS011;55593;51.994;5.882;2023-10-31T08:00:12;26.13;;;16.80;;
68614;SDS011;55593;51.994;5.882;2023-10-31T08:02:41;25.48;;;16.33;;
68614;SDS011;55593;51.994;5.882;2023-10-31T08:05:11;27.17;;;17.70;;
68614;SDS011;55593;51.994;5.882;2023-10-31T08:07:40;29.55;;;17.42;;
68614;SDS011;55593;51.994;5.882;2023-10-31T08:10:10;22.95;;;16.40;;
68614;SDS011;55593;51.994;5.882;2023-10-31T08:12:39;28.15;;;18.83;;
68614;SDS011;55593;51.994;5.882;2023-10-31T08:15:08;28.15;;;18.10;;
68614;SDS011;55593;51.994;5.882;2023-10-31T08:17:42;24.98;;;17.45;;
68614;SDS011;55593;51.994;5.882;2023-10-31T08:20:11;21.80;;;16.40;;
68614;SDS011;55593;51.994;5.882;2023-10-31T08:22:40;23.65;;;16.75;;
68614;SDS011;55593;51.994;5.882;2023-10-31T08:25:10;23.30;;;15.68;;
68614;SDS011;55593;51.994;5.882;2023-10-31T08:27:40;27.35;;;16.10;;
68614;SDS011;55593;51.994;5.882;2023-10-31T08:30:09;23.63;;;15.50;;
68614;SDS011;55593;51.994;5.882;2023-10-31T08:32:42;21.65;;;15.43;;
68614;SDS011;55593;51.994;5.882;2023-10-31T08:35:12;20.10;;;15.00;;
68614;SDS011;55593;51.994;5.882;2023-10-31T08:37:41;25.35;;;16.30;;
68614;SDS011;55593;51.994;5.882;2023-10-31T08:40:10;23.88;;;15.95;;
68614;SDS011;55593;51.994;5.882;2023-10-31T08:42:39;19.45;;;13.27;;
68614;SDS011;55593;51.994;5.882;2023-10-31T08:45:09;19.05;;;13.50;;
68614;SDS011;55593;51.994;5.882;2023-10-31T08:47:38;17.10;;;11.65;;
68614;SDS011;55593;51.994;5.882;2023-10-31T08:50:10;18.27;;;12.35;;
68614;SDS011;55593;51.994;5.882;2023-10-31T08:52:39;16.30;;;11.35;;
68614;SDS011;55593;51.994;5.882;2023-10-31T08:55:09;16.88;;;10.98;;
68614;SDS011;55593;51.994;5.882;2023-10-31T09:47:24;21.95;;;9.60;;
68614;SDS011;55593;51.994;5.882;2023-10-31T09:49:54;20.90;;;8.30;;
68614;SDS011;55593;51.994;5.882;2023-10-31T09:52:23;24.20;;;7.95;;
68614;SDS011;55593;51.994;5.882;2023-10-31T09:54:52;24.75;;;9.25;;
68614;SDS011;55593;51.994;5.882;2023-10-31T09:57:22;19.55;;;9.80;;
68614;SDS011;55593;51.994;5.882;2023-10-31T09:59:52;17.90;;;9.00;;
68614;SDS011;55593;51.994;5.882;2023-10-31T10:02:21;20.60;;;8.73;;
68614;SDS011;55593;51.994;5.882;2023-10-31T10:04:53;17.10;;;9.65;;
68614;SDS011;55593;51.994;5.882;2023-10-31T10:07:23;19.48;;;9.93;;
68614;SDS011;55593;51.994;5.882;2023-10-31T10:09:52;15.30;;;9.10;;
68614;SDS011;55593;51.994;5.882;2023-10-31T10:12:21;21.70;;;10.85;;
68614;SDS011;55593;51.994;5.882;2023-10-31T10:14:51;24.58;;;10.00;;
68614;SDS011;55593;51.994;5.882;2023-10-31T10:17:21;18.63;;;11.77;;
68614;SDS011;55593;51.994;5.882;2023-10-31T10:22:39;21.77;;;10.55;;
68614;SDS011;55593;51.994;5.882;2023-10-31T10:25:09;17.70;;;10.82;;
68614;SDS011;55593;51.994;5.882;2023-10-31T10:27:41;19.70;;;12.43;;
68614;SDS011;55593;51.994;5.882;2023-10-31T10:30:10;23.98;;;12.40;;
68614;SDS011;55593;51.994;5.882;2023-10-31T10:32:41;19.73;;;12.27;;
68614;SDS011;55593;51.994;5.882;2023-10-31T10:35:13;14.88;;;11.85;;
68614;SDS011;55593;51.994;5.882;2023-10-31T10:37:42;20.90;;;11.77;;
68614;SDS011;55593;51.994;5.882;2023-10-31T10:40:11;19.08;;;11.68;;
68614;SDS011;55593;51.994;5.882;2023-10-31T10:42:44;18.35;;;11.30;;
68614;SDS011;55593;51.994;5.882;2023-10-31T10:45:11;20.67;;;10.70;;
68614;SDS011;55593;51.994;5.882;2023-10-31T10:47:42;18.23;;;10.25;;
68614;SDS011;55593;51.994;5.882;2023-10-31T10:50:17;17.52;;;10.10;;
68614;SDS011;55593;51.994;5.882;2023-10-31T10:52:49;24.90;;;11.20;;
68614;SDS011;55593;51.994;5.882;2023-10-31T10:55:19;20.45;;;8.50;;
68614;SDS011;55593;51.994;5.882;2023-10-31T10:57:52;18.10;;;9.38;;
68614;SDS011;55593;51.994;5.882;2023-10-31T11:00:25;18.83;;;8.85;;
68614;SDS011;55593;51.994;5.882;2023-10-31T11:02:55;26.38;;;10.10;;
68614;SDS011;55593;51.994;5.882;2023-10-31T11:05:27;25.20;;;11.45;;
68614;SDS011;55593;51.994;5.882;2023-10-31T11:07:56;21.88;;;10.85;;
68614;SDS011;55593;51.994;5.882;2023-10-31T11:10:27;20.13;;;11.82;;
68614;SDS011;55593;51.994;5.882;2023-10-31T11:12:57;19.65;;;13.13;;
68614;SDS011;55593;51.994;5.882;2023-10-31T11:15:26;16.45;;;12.10;;
68614;SDS011;55593;51.994;5.882;2023-10-31T11:17:56;19.10;;;13.18;;
68614;SDS011;55593;51.994;5.882;2023-10-31T11:20:28;14.57;;;11.27;;
68614;SDS011;55593;51.994;5.882;2023-10-31T11:22:58;18.42;;;12.00;;
68614;SDS011;55593;51.994;5.882;2023-10-31T11:25:30;18.67;;;12.57;;
68614;SDS011;55593;51.994;5.882;2023-10-31T11:28:13;20.40;;;14.55;;
68614;SDS011;55593;51.994;5.882;2023-10-31T11:30:43;23.20;;;13.95;;
68614;SDS011;55593;51.994;5.882;2023-10-31T11:33:15;27.20;;;16.45;;
68614;SDS011;55593;51.994;5.882;2023-10-31T11:35:51;31.90;;;19.02;;
68614;SDS011;55593;51.994;5.882;2023-10-31T11:38:30;28.42;;;21.05;;
68614;SDS011;55593;51.994;5.882;2023-10-31T11:41:02;35.25;;;23.95;;
68614;SDS011;55593;51.994;5.882;2023-10-31T11:46:22;30.30;;;23.40;;
68614;SDS011;55593;51.994;5.882;2023-10-31T11:48:54;30.35;;;25.33;;
68614;SDS011;55593;51.994;5.882;2023-10-31T11:51:28;35.13;;;24.40;;
68614;SDS011;55593;51.994;5.882;2023-10-31T11:53:57;32.78;;;22.40;;
68614;SDS011;55593;51.994;5.882;2023-10-31T11:56:28;37.97;;;25.45;;
68614;SDS011;55593;51.994;5.882;2023-10-31T11:58:57;30.08;;;23.40;;
68614;SDS011;55593;51.994;5.882;2023-10-31T12:01:27;29.20;;;22.77;;
68614;SDS011;55593;51.994;5.882;2023-10-31T12:03:56;33.38;;;23.40;;
68614;SDS011;55593;51.994;5.882;2023-10-31T12:06:28;28.83;;;21.95;;
68614;SDS011;55593;51.994;5.882;2023-10-31T12:08:59;29.15;;;21.40;;
68614;SDS011;55593;51.994;5.882;2023-10-31T12:11:29;38.38;;;23.77;;
68614;SDS011;55593;51.994;5.882;2023-10-31T12:13:58;27.95;;;20.65;;
68614;SDS011;55593;51.994;5.882;2023-10-31T12:16:31;32.75;;;21.55;;
68614;SDS011;55593;51.994;5.882;2023-10-31T12:19:01;31.83;;;22.35;;
68614;SDS011;55593;51.994;5.882;2023-10-31T12:21:37;32.45;;;21.20;;
68614;SDS011;55593;51.994;5.882;2023-10-31T12:24:09;35.00;;;22.38;;
68614;SDS011;55593;51.994;5.882;2023-10-31T12:26:39;28.90;;;20.70;;
68614;SDS011;55593;51.994;5.882;2023-10-31T12:29:10;36.05;;;21.65;;
68614;SDS011;55593;51.994;5.882;2023-10-31T12:31:44;29.88;;;18.85;;
68614;SDS011;55593;51.994;5.882;2023-10-31T12:34:14;34.42;;;20.92;;
68614;SDS011;55593;51.994;5.882;2023-10-31T12:36:47;34.80;;;21.30;;
68614;SDS011;55593;51.994;5.882;2023-10-31T12:39:18;31.02;;;20.77;;
68614;SDS011;55593;51.994;5.882;2023-10-31T12:41:49;36.33;;;20.88;;
68614;SDS011;55593;51.994;5.882;2023-10-31T12:44:20;37.28;;;21.73;;
68614;SDS011;55593;51.994;5.882;2023-10-31T12:46:52;37.33;;;21.10;;
68614;SDS011;55593;51.994;5.882;2023-10-31T12:49:22;38.83;;;22.83;;
68614;SDS011;55593;51.994;5.882;2023-10-31T12:51:58;35.95;;;19.55;;
68614;SDS011;55593;51.994;5.882;2023-10-31T12:54:30;32.88;;;18.98;;
68614;SDS011;55593;51.994;5.882;2023-10-31T12:57:00;37.00;;;20.55;;
68614;SDS011;55593;51.994;5.882;2023-10-31T12:59:30;42.05;;;21.45;;
68614;SDS011;55593;51.994;5.882;2023-10-31T13:02:00;42.35;;;21.58;;
68614;SDS011;55593;51.994;5.882;2023-10-31T13:04:29;38.58;;;23.98;;
68614;SDS011;55593;51.994;5.882;2023-10-31T13:07:02;49.15;;;21.83;;
68614;SDS011;55593;51.994;5.882;2023-10-31T13:09:32;41.63;;;23.00;;
68614;SDS011;55593;51.994;5.882;2023-10-31T13:12:03;37.60;;;22.80;;
68614;SDS011;55593;51.994;5.882;2023-10-31T13:14:34;46.05;;;23.10;;
68614;SDS011;55593;51.994;5.882;2023-10-31T13:17:04;39.55;;;22.30;;
68614;SDS011;55593;51.994;5.882;2023-10-31T13:19:34;36.42;;;21.45;;
68614;SDS011;55593;51.994;5.882;2023-10-31T13:22:06;36.65;;;21.20;;
68614;SDS011;55593;51.994;5.882;2023-10-31T13:24:35;37.35;;;20.63;;
68614;SDS011;55593;51.994;5.882;2023-10-31T13:27:05;36.38;;;21.55;;
68614;SDS011;55593;51.994;5.882;2023-10-31T13:29:34;36.47;;;19.95;;
68614;SDS011;55593;51.994;5.882;2023-10-31T13:32:04;34.30;;;20.27;;
68614;SDS011;55593;51.994;5.882;2023-10-31T13:34:34;33.80;;;20.13;;
68614;SDS011;55593;51.994;5.882;2023-10-31T13:37:06;35.08;;;21.05;;
68614;SDS011;55593;51.994;5.882;2023-10-31T13:39:35;32.40;;;19.10;;
68614;SDS011;55593;51.994;5.882;2023-10-31T13:42:04;33.92;;;20.20;;
68614;SDS011;55593;51.994;5.882;2023-10-31T13:44:36;35.17;;;21.08;;
68614;SDS011;55593;51.994;5.882;2023-10-31T13:47:05;29.52;;;16.98;;
68614;SDS011;55593;51.994;5.882;2023-10-31T13:49:35;28.30;;;19.17;;
68614;SDS011;55593;51.994;5.882;2023-10-31T13:52:06;35.95;;;21.20;;
68614;SDS011;55593;51.994;5.882;2023-10-31T13:54:36;37.17;;;21.08;;
68614;SDS011;55593;51.994;5.882;2023-10-31T13:57:05;28.63;;;18.45;;
68614;SDS011;55593;51.994;5.882;2023-10-31T13:59:34;30.90;;;20.20;;
68614;SDS011;55593;51.994;5.882;2023-10-31T14:02:03;31.02;;;19.67;;
68614;SDS011;55593;51.994;5.882;2023-10-31T14:04:33;28.38;;;19.30;;
68614;SDS011;55593;51.994;5.882;2023-10-31T14:07:03;35.03;;;20.63;;
68614;SDS011;55593;51.994;5.882;2023-10-31T14:09:35;32.45;;;19.65;;
68614;SDS011;55593;51.994;5.882;2023-10-31T14:12:05;27.52;;;19.38;;
68614;SDS011;55593;51.994;5.882;2023-10-31T14:14:34;33.33;;;20.33;;
68614;SDS011;55593;51.994;5.882;2023-10-31T14:17:04;28.63;;;18.92;;
68614;SDS011;55593;51.994;5.882;2023-10-31T14:19:33;26.50;;;17.88;;
68614;SDS011;55593;51.994;5.882;2023-10-31T14:22:02;25.95;;;17.33;;
68614;SDS011;55593;51.994;5.882;2023-10-31T14:24:31;23.73;;;16.55;;
68614;SDS011;55593;51.994;5.882;2023-10-31T14:27:03;25.98;;;17.58;;
68614;SDS011;55593;51.994;5.882;2023-10-31T14:29:32;28.45;;;17.45;;
68614;SDS011;55593;51.994;5.882;2023-10-31T14:32:05;25.65;;;16.52;;
68614;SDS011;55593;51.994;5.882;2023-10-31T14:34:34;27.85;;;17.52;;
68614;SDS011;55593;51.994;5.882;2023-10-31T14:37:04;23.98;;;18.00;;
68614;SDS011;55593;51.994;5.882;2023-10-31T14:39:33;24.63;;;18.95;;
68614;SDS011;55593;51.994;5.882;2023-10-31T14:42:05;24.83;;;17.67;;
68614;SDS011;55593;51.994;5.882;2023-10-31T14:44:34;23.27;;;18.15;;
68614;SDS011;55593;51.994;5.882;2023-10-31T14:47:04;24.55;;;17.98;;
68614;SDS011;55593;51.994;5.882;2023-10-31T14:49:33;25.38;;;18.58;;
68614;SDS011;55593;51.994;5.882;2023-10-31T14:52:02;26.08;;;19.52;;
68614;SDS011;55593;51.994;5.882;2023-10-31T14:54:32;27.15;;;19.70;;
68614;SDS011;55593;51.994;5.882;2023-10-31T14:57:04;27.35;;;18.58;;
68614;SDS011;55593;51.994;5.882;2023-10-31T14:59:34;34.85;;;19.08;;
68614;SDS011;55593;51.994;5.882;2023-10-31T15:02:03;21.88;;;16.10;;
68614;SDS011;55593;51.994;5.882;2023-10-31T15:04:32;22.25;;;16.00;;
68614;SDS011;55593;51.994;5.882;2023-10-31T15:07:01;19.65;;;14.80;;
68614;SDS011;55593;51.994;5.882;2023-10-31T15:09:30;15.05;;;11.77;;
68614;SDS011;55593;51.994;5.882;2023-10-31T15:12:00;20.98;;;11.20;;
68614;SDS011;55593;51.994;5.882;2023-10-31T15:14:31;17.10;;;9.50;;
68614;SDS011;55593;51.994;5.882;2023-10-31T15:17:00;13.20;;;9.65;;
68614;SDS011;55593;51.994;5.882;2023-10-31T15:19:29;15.68;;;8.00;;
68614;SDS011;55593;51.994;5.882;2023-10-31T15:21:59;15.10;;;8.48;;
68614;SDS011;55593;51.994;5.882;2023-10-31T15:24:28;17.40;;;9.13;;
68614;SDS011;55593;51.994;5.882;2023-10-31T15:26:59;13.25;;;8.43;;
68614;SDS011;55593;51.994;5.882;2023-10-31T15:29:28;11.18;;;8.23;;
68614;SDS011;55593;51.994;5.882;2023-10-31T15:31:59;11.20;;;8.80;;
68614;SDS011;55593;51.994;5.882;2023-10-31T15:34:28;15.45;;;8.10;;
68614;SDS011;55593;51.994;5.882;2023-10-31T15:36:58;18.20;;;8.60;;
68614;SDS011;55593;51.994;5.882;2023-10-31T15:39:27;12.00;;;7.65;;